JBU112 KICT-KTUL
Flight info
| Callsign | JBU112 |
|---|---|
| Flight time | 0h 35m |
| Altitude | 13000 |
| Route | JAMEY PER |
| Aircraft | A20N/M-SDE2E3FGHIRWXY/LB1 |
Departure
| Time | 2026-04-26 07:53 |
|---|---|
| Airport | Wichita Dwight D. Eisenhower National Airport (KICT) |
Arrival
| Time | 2026-04-26 08:28 |
|---|---|
| Airport | Tulsa International Airport (KTUL) |
| Time | Latitude | Longitude | Altitude | Speed | Heading |
|---|---|---|---|---|---|
| 2026-04-26 07:34 | 37.65241 | -97.43123 | 1328 ft | 0 kts | 60° |
| 2026-04-26 07:42 | 37.65239 | -97.43126 | 1328 ft | 2 kts | 61° |
| 2026-04-26 07:43 | 37.65232 | -97.43143 | 1328 ft | 2 kts | 71° |
| 2026-04-26 07:43 | 37.65228 | -97.43160 | 1328 ft | 2 kts | 80° |
| 2026-04-26 07:43 | 37.65227 | -97.43179 | 1328 ft | 2 kts | 90° |
| 2026-04-26 07:43 | 37.65228 | -97.43198 | 1328 ft | 2 kts | 101° |
| 2026-04-26 07:44 | 37.65232 | -97.43217 | 1328 ft | 2 kts | 111° |
| 2026-04-26 07:44 | 37.65238 | -97.43233 | 1328 ft | 2 kts | 121° |
| 2026-04-26 07:44 | 37.65247 | -97.43250 | 1328 ft | 2 kts | 131° |
| 2026-04-26 07:44 | 37.65257 | -97.43263 | 1328 ft | 2 kts | 141° |
| 2026-04-26 07:45 | 37.65266 | -97.43271 | 1328 ft | 0 kts | 149° |
| 2026-04-26 07:45 | 37.65265 | -97.43269 | 1328 ft | 3 kts | 148° |
| 2026-04-26 07:45 | 37.65227 | -97.43242 | 1328 ft | 7 kts | 150° |
| 2026-04-26 07:45 | 37.65196 | -97.43220 | 1328 ft | 2 kts | 150° |
| 2026-04-26 07:46 | 37.65192 | -97.43217 | 1328 ft | 0 kts | 150° |
| 2026-04-26 07:47 | 37.65191 | -97.43216 | 1328 ft | 1 kts | 150° |
| 2026-04-26 07:47 | 37.65169 | -97.43201 | 1328 ft | 5 kts | 151° |
| 2026-04-26 07:48 | 37.65119 | -97.43192 | 1327 ft | 10 kts | 216° |
| 2026-04-26 07:48 | 37.65047 | -97.43198 | 1325 ft | 13 kts | 149° |
| 2026-04-26 07:48 | 37.64956 | -97.43197 | 1324 ft | 14 kts | 199° |
| 2026-04-26 07:48 | 37.64903 | -97.43294 | 1324 ft | 14 kts | 265° |
| 2026-04-26 07:49 | 37.64895 | -97.43426 | 1325 ft | 15 kts | 265° |
| 2026-04-26 07:49 | 37.64885 | -97.43571 | 1325 ft | 18 kts | 265° |
| 2026-04-26 07:49 | 37.64872 | -97.43737 | 1325 ft | 19 kts | 265° |
| 2026-04-26 07:50 | 37.64666 | -97.43921 | 1321 ft | 24 kts | 202° |
| 2026-04-26 07:50 | 37.64504 | -97.43996 | 1318 ft | 25 kts | 200° |
| 2026-04-26 07:50 | 37.64334 | -97.44074 | 1315 ft | 26 kts | 200° |
| 2026-04-26 07:50 | 37.64162 | -97.44154 | 1312 ft | 26 kts | 200° |
| 2026-04-26 07:51 | 37.63987 | -97.44233 | 1310 ft | 26 kts | 200° |
| 2026-04-26 07:51 | 37.63815 | -97.44312 | 1309 ft | 26 kts | 200° |
| 2026-04-26 07:51 | 37.63649 | -97.44388 | 1310 ft | 24 kts | 200° |
| 2026-04-26 07:51 | 37.63511 | -97.44456 | 1312 ft | 12 kts | 215° |
| 2026-04-26 07:52 | 37.63492 | -97.44535 | 1313 ft | 9 kts | 285° |
| 2026-04-26 07:52 | 37.63533 | -97.44584 | 1315 ft | 8 kts | 6° |
| 2026-04-26 07:52 | 37.63676 | -97.44521 | 1312 ft | 52 kts | 20° |
| 2026-04-26 07:52 | 37.64262 | -97.44254 | 1314 ft | 123 kts | 20° |
| 2026-04-26 07:53 | 37.65241 | -97.43807 | 1410 ft | 169 kts | 23° |
| 2026-04-26 07:53 | 37.66362 | -97.43254 | 1991 ft | 174 kts | 24° |
| 2026-04-26 07:53 | 37.67490 | -97.42703 | 2732 ft | 177 kts | 22° |
| 2026-04-26 07:53 | 37.68637 | -97.42220 | 3436 ft | 178 kts | 22° |
| 2026-04-26 07:54 | 37.69830 | -97.41717 | 4059 ft | 183 kts | 26° |
| 2026-04-26 07:54 | 37.70695 | -97.40677 | 4715 ft | 178 kts | 71° |
| 2026-04-26 07:54 | 37.70629 | -97.39182 | 5401 ft | 177 kts | 115° |
| 2026-04-26 07:54 | 37.69834 | -97.38012 | 5969 ft | 186 kts | 146° |
| 2026-04-26 07:55 | 37.68583 | -97.37564 | 6562 ft | 194 kts | 180° |
| 2026-04-26 07:55 | 37.67242 | -97.37664 | 7239 ft | 196 kts | 185° |
| 2026-04-26 07:55 | 37.65894 | -97.37769 | 7944 ft | 196 kts | 185° |
| 2026-04-26 07:55 | 37.64539 | -97.37859 | 8631 ft | 197 kts | 186° |
| 2026-04-26 07:56 | 37.63173 | -97.37937 | 9302 ft | 199 kts | 187° |
| 2026-04-26 07:56 | 37.61783 | -97.38011 | 9974 ft | 200 kts | 188° |
| 2026-04-26 07:56 | 37.60394 | -97.38081 | 10621 ft | 202 kts | 188° |
| 2026-04-26 07:56 | 37.59012 | -97.38146 | 11251 ft | 203 kts | 189° |
| 2026-04-26 07:57 | 37.57594 | -97.38212 | 11884 ft | 205 kts | 189° |
| 2026-04-26 07:57 | 37.56127 | -97.38284 | 12325 ft | 218 kts | 189° |
| 2026-04-26 07:57 | 37.54567 | -97.38363 | 12697 ft | 235 kts | 189° |
| 2026-04-26 07:57 | 37.52838 | -97.38451 | 12932 ft | 255 kts | 189° |
| 2026-04-26 07:58 | 37.51055 | -97.38530 | 12988 ft | 256 kts | 188° |
| 2026-04-26 07:58 | 37.49294 | -97.38599 | 12991 ft | 256 kts | 188° |
| 2026-04-26 07:58 | 37.47516 | -97.38670 | 12993 ft | 255 kts | 188° |
| 2026-04-26 07:58 | 37.45725 | -97.38743 | 12997 ft | 255 kts | 188° |
| 2026-04-26 07:59 | 37.43961 | -97.38815 | 12997 ft | 255 kts | 188° |
| 2026-04-26 07:59 | 37.42176 | -97.38889 | 12996 ft | 255 kts | 188° |
| 2026-04-26 07:59 | 37.40404 | -97.38963 | 12995 ft | 255 kts | 188° |
| 2026-04-26 07:59 | 37.38644 | -97.39037 | 12994 ft | 255 kts | 188° |
| 2026-04-26 08:00 | 37.36857 | -97.39114 | 12993 ft | 255 kts | 188° |
| 2026-04-26 08:00 | 37.35071 | -97.39188 | 12993 ft | 255 kts | 188° |
| 2026-04-26 08:00 | 37.33305 | -97.39264 | 12994 ft | 255 kts | 188° |
| 2026-04-26 08:00 | 37.31527 | -97.39301 | 12993 ft | 257 kts | 184° |
| 2026-04-26 08:01 | 37.29736 | -97.39093 | 12993 ft | 260 kts | 176° |
| 2026-04-26 08:01 | 37.27952 | -97.38587 | 12994 ft | 264 kts | 169° |
| 2026-04-26 08:01 | 37.26215 | -97.37878 | 12991 ft | 265 kts | 167° |
| 2026-04-26 08:01 | 37.24451 | -97.37120 | 12989 ft | 265 kts | 167° |
| 2026-04-26 08:02 | 37.22702 | -97.36365 | 12994 ft | 265 kts | 167° |
| 2026-04-26 08:02 | 37.20969 | -97.35622 | 12992 ft | 265 kts | 167° |
| 2026-04-26 08:02 | 37.19220 | -97.34875 | 12989 ft | 265 kts | 167° |
| 2026-04-26 08:02 | 37.17476 | -97.34133 | 12989 ft | 265 kts | 167° |
| 2026-04-26 08:03 | 37.15717 | -97.33386 | 12983 ft | 265 kts | 167° |
| 2026-04-26 08:03 | 37.13980 | -97.32650 | 12979 ft | 265 kts | 167° |
| 2026-04-26 08:03 | 37.12214 | -97.31902 | 12975 ft | 266 kts | 167° |
| 2026-04-26 08:03 | 37.10463 | -97.31163 | 12973 ft | 266 kts | 167° |
| 2026-04-26 08:04 | 37.08711 | -97.30421 | 12972 ft | 265 kts | 167° |
| 2026-04-26 08:04 | 37.06978 | -97.29689 | 12968 ft | 265 kts | 167° |
| 2026-04-26 08:04 | 37.05213 | -97.28945 | 12962 ft | 266 kts | 167° |
| 2026-04-26 08:04 | 37.03457 | -97.28203 | 12959 ft | 266 kts | 167° |
| 2026-04-26 08:05 | 37.01701 | -97.27462 | 12955 ft | 266 kts | 167° |
| 2026-04-26 08:05 | 36.99961 | -97.26729 | 12954 ft | 266 kts | 167° |
| 2026-04-26 08:05 | 36.98207 | -97.25988 | 12952 ft | 266 kts | 167° |
| 2026-04-26 08:05 | 36.96460 | -97.25251 | 12949 ft | 266 kts | 167° |
| 2026-04-26 08:06 | 36.94708 | -97.24513 | 12945 ft | 265 kts | 167° |
| 2026-04-26 08:06 | 36.92945 | -97.23768 | 12945 ft | 265 kts | 167° |
| 2026-04-26 08:06 | 36.91195 | -97.23032 | 12942 ft | 266 kts | 167° |
| 2026-04-26 08:06 | 36.89445 | -97.22293 | 12932 ft | 266 kts | 167° |
| 2026-04-26 08:07 | 36.87686 | -97.21552 | 12934 ft | 265 kts | 167° |
| 2026-04-26 08:07 | 36.85939 | -97.20817 | 12935 ft | 266 kts | 167° |
| 2026-04-26 08:07 | 36.84200 | -97.20087 | 12947 ft | 266 kts | 167° |
| 2026-04-26 08:07 | 36.82451 | -97.19353 | 12956 ft | 266 kts | 167° |
| 2026-04-26 08:08 | 36.80683 | -97.18613 | 12961 ft | 266 kts | 167° |
| 2026-04-26 08:08 | 36.78921 | -97.17874 | 12962 ft | 266 kts | 167° |
| 2026-04-26 08:08 | 36.77179 | -97.17145 | 12963 ft | 266 kts | 166° |
| 2026-04-26 08:08 | 36.75489 | -97.16110 | 12957 ft | 274 kts | 146° |
| 2026-04-26 08:09 | 36.74184 | -97.14387 | 12962 ft | 280 kts | 124° |
| 2026-04-26 08:09 | 36.73365 | -97.12167 | 12969 ft | 283 kts | 111° |
| 2026-04-26 08:09 | 36.72739 | -97.09849 | 12966 ft | 283 kts | 109° |
| 2026-04-26 08:09 | 36.72140 | -97.07538 | 12965 ft | 283 kts | 109° |
| 2026-04-26 08:10 | 36.71523 | -97.05194 | 12963 ft | 283 kts | 109° |
| 2026-04-26 08:10 | 36.70906 | -97.02900 | 12965 ft | 283 kts | 110° |
| 2026-04-26 08:10 | 36.70266 | -97.00566 | 12977 ft | 284 kts | 110° |
| 2026-04-26 08:10 | 36.69623 | -96.98247 | 12977 ft | 284 kts | 110° |
| 2026-04-26 08:11 | 36.68975 | -96.95923 | 12993 ft | 284 kts | 110° |
| 2026-04-26 08:11 | 36.68324 | -96.93597 | 12978 ft | 284 kts | 110° |
| 2026-04-26 08:11 | 36.67676 | -96.91290 | 12972 ft | 284 kts | 110° |
| 2026-04-26 08:11 | 36.67022 | -96.88966 | 12971 ft | 284 kts | 110° |
| 2026-04-26 08:12 | 36.66369 | -96.86660 | 12972 ft | 284 kts | 110° |
| 2026-04-26 08:12 | 36.65712 | -96.84341 | 12966 ft | 284 kts | 110° |
| 2026-04-26 08:12 | 36.65058 | -96.82031 | 12959 ft | 284 kts | 110° |
| 2026-04-26 08:12 | 36.64403 | -96.79708 | 12956 ft | 284 kts | 110° |
| 2026-04-26 08:13 | 36.63752 | -96.77401 | 12955 ft | 284 kts | 110° |
| 2026-04-26 08:13 | 36.63096 | -96.75075 | 12955 ft | 284 kts | 110° |
| 2026-04-26 08:13 | 36.62446 | -96.72773 | 12952 ft | 284 kts | 110° |
| 2026-04-26 08:13 | 36.61792 | -96.70461 | 12954 ft | 284 kts | 110° |
| 2026-04-26 08:14 | 36.61132 | -96.68132 | 12955 ft | 283 kts | 110° |
| 2026-04-26 08:14 | 36.60484 | -96.65848 | 12956 ft | 283 kts | 110° |
| 2026-04-26 08:14 | 36.59824 | -96.63519 | 12954 ft | 284 kts | 110° |
| 2026-04-26 08:14 | 36.59166 | -96.61204 | 12956 ft | 283 kts | 110° |
| 2026-04-26 08:15 | 36.58517 | -96.58916 | 12764 ft | 284 kts | 110° |
| 2026-04-26 08:15 | 36.57845 | -96.56552 | 12209 ft | 294 kts | 109° |
| 2026-04-26 08:15 | 36.57169 | -96.54164 | 11801 ft | 295 kts | 109° |
| 2026-04-26 08:15 | 36.56482 | -96.51735 | 11337 ft | 300 kts | 109° |
| 2026-04-26 08:16 | 36.55798 | -96.49322 | 10943 ft | 300 kts | 109° |
| 2026-04-26 08:16 | 36.55106 | -96.46886 | 10648 ft | 297 kts | 109° |
| 2026-04-26 08:16 | 36.54417 | -96.44468 | 10383 ft | 293 kts | 109° |
| 2026-04-26 08:16 | 36.53749 | -96.42122 | 10120 ft | 288 kts | 109° |
| 2026-04-26 08:17 | 36.53079 | -96.39771 | 9859 ft | 284 kts | 109° |
| 2026-04-26 08:17 | 36.52425 | -96.37481 | 9602 ft | 280 kts | 109° |
| 2026-04-26 08:17 | 36.51783 | -96.35235 | 9351 ft | 276 kts | 109° |
| 2026-04-26 08:17 | 36.51145 | -96.33009 | 9097 ft | 271 kts | 109° |
| 2026-04-26 08:18 | 36.50519 | -96.30824 | 8842 ft | 267 kts | 109° |
| 2026-04-26 08:18 | 36.49898 | -96.28661 | 8589 ft | 263 kts | 109° |
| 2026-04-26 08:18 | 36.49294 | -96.26553 | 8305 ft | 259 kts | 109° |
| 2026-04-26 08:18 | 36.48696 | -96.24477 | 8006 ft | 254 kts | 109° |
| 2026-04-26 08:19 | 36.48103 | -96.22413 | 7694 ft | 250 kts | 109° |
| 2026-04-26 08:19 | 36.47530 | -96.20423 | 7363 ft | 245 kts | 109° |
| 2026-04-26 08:19 | 36.46962 | -96.18445 | 7046 ft | 241 kts | 109° |
| 2026-04-26 08:19 | 36.46399 | -96.16496 | 6724 ft | 237 kts | 108° |
| 2026-04-26 08:20 | 36.45855 | -96.14610 | 6408 ft | 233 kts | 108° |
| 2026-04-26 08:20 | 36.45312 | -96.12724 | 6144 ft | 229 kts | 109° |
| 2026-04-26 08:20 | 36.44781 | -96.10883 | 5900 ft | 225 kts | 109° |
| 2026-04-26 08:20 | 36.44257 | -96.09064 | 5663 ft | 221 kts | 109° |
| 2026-04-26 08:21 | 36.43750 | -96.07304 | 5432 ft | 217 kts | 110° |
| 2026-04-26 08:21 | 36.43245 | -96.05554 | 5201 ft | 214 kts | 110° |
| 2026-04-26 08:21 | 36.42742 | -96.03819 | 4970 ft | 210 kts | 110° |
| 2026-04-26 08:21 | 36.42258 | -96.02150 | 4745 ft | 206 kts | 110° |
| 2026-04-26 08:22 | 36.41775 | -96.00478 | 4509 ft | 203 kts | 110° |
| 2026-04-26 08:22 | 36.41298 | -95.98832 | 4258 ft | 201 kts | 111° |
| 2026-04-26 08:22 | 36.40825 | -95.97203 | 3998 ft | 200 kts | 111° |
| 2026-04-26 08:22 | 36.40360 | -95.95609 | 3741 ft | 198 kts | 112° |
| 2026-04-26 08:23 | 36.39889 | -95.93994 | 3489 ft | 196 kts | 112° |
| 2026-04-26 08:23 | 36.39430 | -95.92429 | 3261 ft | 196 kts | 112° |
| 2026-04-26 08:23 | 36.38958 | -95.90820 | 2934 ft | 198 kts | 112° |
| 2026-04-26 08:23 | 36.38498 | -95.89242 | 2676 ft | 196 kts | 114° |
| 2026-04-26 08:24 | 36.37751 | -95.87887 | 2418 ft | 187 kts | 148° |
| 2026-04-26 08:24 | 36.36573 | -95.87360 | 2379 ft | 180 kts | 171° |
| 2026-04-26 08:24 | 36.35313 | -95.87264 | 2371 ft | 181 kts | 178° |
| 2026-04-26 08:24 | 36.34051 | -95.87307 | 2365 ft | 181 kts | 180° |
| 2026-04-26 08:25 | 36.32784 | -95.87389 | 2361 ft | 181 kts | 181° |
| 2026-04-26 08:25 | 36.31516 | -95.87476 | 2353 ft | 182 kts | 181° |
| 2026-04-26 08:25 | 36.30255 | -95.87558 | 2248 ft | 177 kts | 181° |
| 2026-04-26 08:25 | 36.29064 | -95.87636 | 2039 ft | 164 kts | 180° |
| 2026-04-26 08:26 | 36.27978 | -95.87707 | 1828 ft | 149 kts | 180° |
| 2026-04-26 08:26 | 36.26989 | -95.87770 | 1622 ft | 140 kts | 180° |
| 2026-04-26 08:26 | 36.26014 | -95.87833 | 1456 ft | 139 kts | 180° |
| 2026-04-26 08:26 | 36.25053 | -95.87894 | 1286 ft | 139 kts | 180° |
| 2026-04-26 08:27 | 36.24080 | -95.87958 | 1125 ft | 138 kts | 180° |
| 2026-04-26 08:27 | 36.23120 | -95.88026 | 960 ft | 138 kts | 180° |
| 2026-04-26 08:27 | 36.22159 | -95.88086 | 780 ft | 137 kts | 180° |
| 2026-04-26 08:27 | 36.21212 | -95.88144 | 627 ft | 135 kts | 180° |
| 2026-04-26 08:28 | 36.20431 | -95.88194 | 638 ft | 87 kts | 183° |
| 2026-04-26 08:28 | 36.19961 | -95.88222 | 648 ft | 59 kts | 183° |
| 2026-04-26 08:28 | 36.19577 | -95.88254 | 651 ft | 51 kts | 184° |
| 2026-04-26 08:28 | 36.19320 | -95.88269 | 651 ft | 23 kts | 186° |
| 2026-04-26 08:29 | 36.19191 | -95.88367 | 652 ft | 21 kts | 208° |
| 2026-04-26 08:29 | 36.19103 | -95.88454 | 651 ft | 5 kts | 270° |
| 2026-04-26 08:29 | 36.19132 | -95.88492 | 652 ft | 6 kts | 317° |
| 2026-04-26 08:29 | 36.19161 | -95.88535 | 653 ft | 6 kts | 309° |
| 2026-04-26 08:30 | 36.19192 | -95.88583 | 654 ft | 9 kts | 307° |
| 2026-04-26 08:30 | 36.19239 | -95.88663 | 654 ft | 12 kts | 307° |
| 2026-04-26 08:30 | 36.19234 | -95.88741 | 656 ft | 10 kts | 216° |
| 2026-04-26 08:30 | 36.19172 | -95.88799 | 656 ft | 11 kts | 218° |
| 2026-04-26 08:31 | 36.19107 | -95.88862 | 656 ft | 9 kts | 212° |
| 2026-04-26 08:31 | 36.19105 | -95.88850 | 656 ft | 6 kts | 23° |
| 2026-04-26 08:31 | 36.19177 | -95.88794 | 656 ft | 16 kts | 40° |
| 2026-04-26 08:31 | 36.19233 | -95.88687 | 655 ft | 13 kts | 115° |
| 2026-04-26 08:32 | 36.19192 | -95.88666 | 655 ft | 4 kts | 198° |
| 2026-04-26 08:32 | 36.19168 | -95.88677 | 656 ft | 2 kts | 200° |
| 2026-04-26 08:32 | 36.19162 | -95.88680 | 656 ft | 0 kts | 201° |